Ballantyne Straits — CZ5836 — position and weather

sailwx.info

Track history (hours):
 
Tides and Currents Weather Stations Pressure Air Temp Water Temp Dewpoint Dewpoint Depression Visibility Wind Speed Wind Dir Waves Ship Positions

Ballantyne Straits

Last reported at 2017-Nov-15 23:08 UTC. Time now 2017-Nov-17 21:35 UTC.
Position N 49°14' W 122°46'.

Length 22 m; draft 4.9 m.

Type: Tug. MMSI: 316005605.

Date/timePositionNaut miles runAvg speedWind from/ knotsBaromVisibWave heightAir tempDewpointWater temp
2017-Nov-15 23:08N 49°14' W 122°46'0 0.0
2017-Nov-15 21:57N 49°14' W 122°46'0 0.0
2017-Nov-15 21:12N 49°14' W 122°46'0 0.0
2017-Nov-15 16:11N 49°14' W 122°46'0 0.0
2017-Nov-15 15:43N 49°14' W 122°46'0 0.0
2017-Nov-15 12:01N 49°14' W 122°46'0 0.0
2017-Nov-15 11:55N 49°14' W 122°46'0 0.0
2017-Nov-15 11:26N 49°14' W 122°46'0 0.0
2017-Nov-15 02:38N 49°14' W 122°46'0 0.0
2017-Nov-15 01:38N 49°14' W 122°46'0 0.0
2017-Nov-15 01:20N 49°14' W 122°46'0 0.0
2017-Nov-14 21:16N 49°14' W 122°46'0 0.1
2017-Nov-14 20:51N 49°14' W 122°46'0 0.3
2017-Nov-14 20:30N 49°14' W 122°46'0 0.0
2017-Nov-14 02:53N 49°14' W 122°46'0 0.0
2017-Nov-14 02:29N 49°14' W 122°46'  
2017-Nov-11 04:33N 49°13' W 122°48'1 9.5
2017-Nov-11 04:24N 49°13' W 122°50'3 8.6
2017-Nov-11 04:00N 49°12' W 122°55'7 8.2
2017-Nov-11 03:06N 49°12' W 123°06'1 9.4
2017-Nov-11 03:00N 49°12' W 123°07'4 8.8
2017-Nov-11 02:30N 49°14' W 123°13'2 4.0
2017-Nov-11 02:00N 49°15' W 123°16'4 7.3
2017-Nov-11 01:30N 49°17' W 123°20'5 9.5
2017-Nov-11 01:00N 49°20' W 123°26'5 8.8
2017-Nov-11 00:30N 49°25' W 123°26'4 7.7
2017-Nov-11 00:00N 49°28' W 123°28'0 0.0
2017-Nov-10 23:30N 49°28' W 123°28'0 0.1
2017-Nov-10 23:00N 49°28' W 123°28'0 0.0
2017-Nov-10 22:29N 49°28' W 123°28'0 0.0
2017-Nov-10 22:01N 49°28' W 123°28'0 0.0
2017-Nov-10 21:30N 49°28' W 123°28'0 0.0
2017-Nov-10 20:59N 49°28' W 123°28'0 0.0
2017-Nov-10 20:30N 49°28' W 123°28'0 0.0
2017-Nov-10 20:00N 49°28' W 123°28'0 0.0
2017-Nov-10 19:28N 49°28' W 123°28'0 0.0
2017-Nov-10 19:00N 49°28' W 123°28'0 0.0
2017-Nov-10 18:29N 49°28' W 123°28'0 0.0
2017-Nov-10 18:00N 49°28' W 123°28'0 0.2
2017-Nov-10 17:30N 49°28' W 123°28'0 0.0
2017-Nov-10 17:00N 49°28' W 123°28'0 0.0
2017-Nov-10 16:30N 49°28' W 123°28'1 2.2
2017-Nov-10 16:00N 49°27' W 123°27'4 6.3
2017-Nov-10 15:24N 49°23' W 123°26'3 6.9
2017-Nov-10 14:59N 49°22' W 123°30'4 6.7
2017-Nov-10 14:25N 49°23' W 123°36'3 6.9
2017-Nov-10 13:56N 49°24' W 123°41'28 6.7
2017-Nov-10 09:45N 49°33' W 124°21'2 6.7
2017-Nov-10 09:26N 49°34' W 124°24'3 6.9
2017-Nov-10 08:58N 49°36' W 124°28'3 6.7
2017-Nov-10 08:28N 49°38' W 124°32'3 6.8
2017-Nov-10 07:57N 49°41' W 124°36'3 6.9
2017-Nov-10 07:30N 49°43' W 124°39'3 6.7
2017-Nov-10 07:00N 49°45' W 124°43'3 6.4
2017-Nov-10 06:31N 49°47' W 124°47'3 6.3
2017-Nov-10 06:00N 49°49' W 124°51'3 6.5
2017-Nov-10 05:30N 49°51' W 124°55'3 6.6
2017-Nov-10 05:00N 49°53' W 124°59'3 6.7
2017-Nov-10 04:30N 49°55' W 125°03'3 6.8
2017-Nov-10 04:00N 49°57' W 125°08'4 8.9
2017-Nov-10 03:30N 50°00' W 125°12'510.1
2017-Nov-10 03:00N 50°05' W 125°16'5 9.2
2017-Nov-10 02:31N 50°08' W 125°21'4 8.9
2017-Nov-10 02:00N 50°12' W 125°22'4 7.2
2017-Nov-10 01:30N 50°16' W 125°24'4 7.1
2017-Nov-10 01:00N 50°19' W 125°26'28 5.3
2017-Nov-09 19:40N 50°28' W 126°08'1 5.4
2017-Nov-09 19:25N 50°28' W 126°10'11 5.5
2017-Nov-09 17:22N 50°29' W 126°27'2 5.5
2017-Nov-09 16:57N 50°29' W 126°31'3 5.6
2017-Nov-09 16:30N 50°29' W 126°35'4 5.9
2017-Nov-09 15:45N 50°31' W 126°41'2 5.9
2017-Nov-09 15:29N 50°33' W 126°41'3 6.5
2017-Nov-09 14:58N 50°36' W 126°44'3 6.0
2017-Nov-09 14:23N 50°38' W 126°48'3 6.1
2017-Nov-09 13:56N 50°41' W 126°50'2 3.8
2017-Nov-09 13:30N 50°42' W 126°52'3 5.8
2017-Nov-09 12:57N 50°43' W 126°56'3 5.5
2017-Nov-09 12:21N 50°46' W 127°00'3 5.8
2017-Nov-09 11:55N 50°47' W 127°03'2 5.7
2017-Nov-09 11:29N 50°49' W 127°07'3 6.0
2017-Nov-09 11:00N 50°50' W 127°10'3 5.9
2017-Nov-09 10:30N 50°52' W 127°15'3 5.4
2017-Nov-09 09:59N 50°53' W 127°19'2 5.1
2017-Nov-09 09:30N 50°54' W 127°22'3 5.4
2017-Nov-09 09:00N 50°55' W 127°26'3 6.0
2017-Nov-09 08:30N 50°57' W 127°29'3 6.1
2017-Nov-09 08:00N 50°59' W 127°33'3 5.2
2017-Nov-09 07:30N 51°01' W 127°36'3 5.1
2017-Nov-09 07:00N 51°03' W 127°39'2 4.9
2017-Nov-09 06:30N 51°04' W 127°42'2 4.9
2017-Nov-09 06:00N 51°06' W 127°45'3 5.0
2017-Nov-09 05:29N 51°07' W 127°48'2 4.5
2017-Nov-09 05:00N 51°09' W 127°51'2 4.4
2017-Nov-09 04:29N 51°11' W 127°51'3 6.2
2017-Nov-09 04:00N 51°14' W 127°50'7 6.6
2017-Nov-09 02:57N 51°17' W 127°40'3 7.2
2017-Nov-09 02:30N 51°19' W 127°36'4 7.2
2017-Nov-09 02:01N 51°19' W 127°30'4 7.4
2017-Nov-09 01:30N 51°18' W 127°24'2 4.7
2017-Nov-09 01:00N 51°20' W 127°21'1 2.3
2017-Nov-09 00:30N 51°20' W 127°20'0 0.1
2017-Nov-08 23:57N 51°20' W 127°20'0 0.0
2017-Nov-08 23:04N 51°20' W 127°20'0 0.0
2017-Nov-08 22:57N 51°20' W 127°20'0 0.0
2017-Nov-08 22:30N 51°20' W 127°20'1 1.3
2017-Nov-08 22:01N 51°20' W 127°20'1 1.1
2017-Nov-08 21:31N 51°20' W 127°21'1 2.2
2017-Nov-08 21:00N 51°20' W 127°20'0 0.0
2017-Nov-08 20:30N 51°20' W 127°20'0 0.0
2017-Nov-08 17:08N 51°20' W 127°20'0 0.0
2017-Nov-08 16:57N 51°20' W 127°20'0 0.0
2017-Nov-08 16:21N 51°20' W 127°20'0 0.0
2017-Nov-08 15:07N 51°20' W 127°20'0 0.0
2017-Nov-08 10:39N 51°20' W 127°20'0 0.0
2017-Nov-08 05:27N 51°20' W 127°20'0 0.0
2017-Nov-08 05:00N 51°20' W 127°20'0 0.0
2017-Nov-07 19:08N 51°20' W 127°20'1 8.9
2017-Nov-07 19:00N 51°19' W 127°21'1 1.1
2017-Nov-07 18:30N 51°20' W 127°21'1 1.7
2017-Nov-07 17:53N 51°20' W 127°20'0 0.0
2017-Nov-07 08:05N 51°20' W 127°20'0 0.0
2017-Nov-06 23:31N 51°20' W 127°20'0 0.0
2017-Nov-06 23:30N 51°20' W 127°20'0 0.1
2017-Nov-06 21:30N 51°20' W 127°20'1 1.4
2017-Nov-06 21:00N 51°20' W 127°21'1 1.3
2017-Nov-06 20:20N 51°20' W 127°20'0 0.0
2017-Nov-06 01:11N 51°20' W 127°20'0 0.0
2017-Nov-05 23:42N 51°20' W 127°20'  
Track history (hours):
 
Tides and Currents Weather Stations Pressure Air Temp Water Temp Dewpoint Dewpoint Depression Visibility Wind Speed Wind Dir Waves Ship Positions

Ballantyne Straits

Last reported at 2017-Nov-15 23:08 UTC. Time now 2017-Nov-17 21:35 UTC.
Position N 49°14' W 122°46'.

Length 22 m; draft 4.9 m.

Type: Tug. MMSI: 316005605.

Date/timePositionNaut miles runAvg speedWind from/ knotsBaromVisibWave heightAir tempDewpointWater temp
2017-Nov-15 23:08N 49°14' W 122°46'0 0.0
2017-Nov-15 21:57N 49°14' W 122°46'0 0.0
2017-Nov-15 21:12N 49°14' W 122°46'0 0.0
2017-Nov-15 16:11N 49°14' W 122°46'0 0.0
2017-Nov-15 15:43N 49°14' W 122°46'0 0.0
2017-Nov-15 12:01N 49°14' W 122°46'0 0.0
2017-Nov-15 11:55N 49°14' W 122°46'0 0.0
2017-Nov-15 11:26N 49°14' W 122°46'0 0.0
2017-Nov-15 02:38N 49°14' W 122°46'0 0.0
2017-Nov-15 01:38N 49°14' W 122°46'0 0.0
2017-Nov-15 01:20N 49°14' W 122°46'0 0.0
2017-Nov-14 21:16N 49°14' W 122°46'0 0.1
2017-Nov-14 20:51N 49°14' W 122°46'0 0.3
2017-Nov-14 20:30N 49°14' W 122°46'0 0.0
2017-Nov-14 02:53N 49°14' W 122°46'0 0.0
2017-Nov-14 02:29N 49°14' W 122°46'  
2017-Nov-11 04:33N 49°13' W 122°48'1 9.5
2017-Nov-11 04:24N 49°13' W 122°50'3 8.6
2017-Nov-11 04:00N 49°12' W 122°55'7 8.2
2017-Nov-11 03:06N 49°12' W 123°06'1 9.4
2017-Nov-11 03:00N 49°12' W 123°07'4 8.8
2017-Nov-11 02:30N 49°14' W 123°13'2 4.0
2017-Nov-11 02:00N 49°15' W 123°16'4 7.3
2017-Nov-11 01:30N 49°17' W 123°20'5 9.5
2017-Nov-11 01:00N 49°20' W 123°26'5 8.8
2017-Nov-11 00:30N 49°25' W 123°26'4 7.7
2017-Nov-11 00:00N 49°28' W 123°28'0 0.0
2017-Nov-10 23:30N 49°28' W 123°28'0 0.1
2017-Nov-10 23:00N 49°28' W 123°28'0 0.0
2017-Nov-10 22:29N 49°28' W 123°28'0 0.0
2017-Nov-10 22:01N 49°28' W 123°28'0 0.0
2017-Nov-10 21:30N 49°28' W 123°28'0 0.0
2017-Nov-10 20:59N 49°28' W 123°28'0 0.0
2017-Nov-10 20:30N 49°28' W 123°28'0 0.0
2017-Nov-10 20:00N 49°28' W 123°28'0 0.0
2017-Nov-10 19:28N 49°28' W 123°28'0 0.0
2017-Nov-10 19:00N 49°28' W 123°28'0 0.0
2017-Nov-10 18:29N 49°28' W 123°28'0 0.0
2017-Nov-10 18:00N 49°28' W 123°28'0 0.2
2017-Nov-10 17:30N 49°28' W 123°28'0 0.0
2017-Nov-10 17:00N 49°28' W 123°28'0 0.0
2017-Nov-10 16:30N 49°28' W 123°28'1 2.2
2017-Nov-10 16:00N 49°27' W 123°27'4 6.3
2017-Nov-10 15:24N 49°23' W 123°26'3 6.9
2017-Nov-10 14:59N 49°22' W 123°30'4 6.7
2017-Nov-10 14:25N 49°23' W 123°36'3 6.9
2017-Nov-10 13:56N 49°24' W 123°41'28 6.7
2017-Nov-10 09:45N 49°33' W 124°21'2 6.7
2017-Nov-10 09:26N 49°34' W 124°24'3 6.9
2017-Nov-10 08:58N 49°36' W 124°28'3 6.7
2017-Nov-10 08:28N 49°38' W 124°32'3 6.8
2017-Nov-10 07:57N 49°41' W 124°36'3 6.9
2017-Nov-10 07:30N 49°43' W 124°39'3 6.7
2017-Nov-10 07:00N 49°45' W 124°43'3 6.4
2017-Nov-10 06:31N 49°47' W 124°47'3 6.3
2017-Nov-10 06:00N 49°49' W 124°51'3 6.5
2017-Nov-10 05:30N 49°51' W 124°55'3 6.6
2017-Nov-10 05:00N 49°53' W 124°59'3 6.7
2017-Nov-10 04:30N 49°55' W 125°03'3 6.8
2017-Nov-10 04:00N 49°57' W 125°08'4 8.9
2017-Nov-10 03:30N 50°00' W 125°12'510.1
2017-Nov-10 03:00N 50°05' W 125°16'5 9.2
2017-Nov-10 02:31N 50°08' W 125°21'4 8.9
2017-Nov-10 02:00N 50°12' W 125°22'4 7.2
2017-Nov-10 01:30N 50°16' W 125°24'4 7.1
2017-Nov-10 01:00N 50°19' W 125°26'28 5.3
2017-Nov-09 19:40N 50°28' W 126°08'1 5.4
2017-Nov-09 19:25N 50°28' W 126°10'11 5.5
2017-Nov-09 17:22N 50°29' W 126°27'2 5.5
2017-Nov-09 16:57N 50°29' W 126°31'3 5.6
2017-Nov-09 16:30N 50°29' W 126°35'4 5.9
2017-Nov-09 15:45N 50°31' W 126°41'2 5.9
2017-Nov-09 15:29N 50°33' W 126°41'3 6.5
2017-Nov-09 14:58N 50°36' W 126°44'3 6.0
2017-Nov-09 14:23N 50°38' W 126°48'3 6.1
2017-Nov-09 13:56N 50°41' W 126°50'2 3.8
2017-Nov-09 13:30N 50°42' W 126°52'3 5.8
2017-Nov-09 12:57N 50°43' W 126°56'3 5.5
2017-Nov-09 12:21N 50°46' W 127°00'3 5.8
2017-Nov-09 11:55N 50°47' W 127°03'2 5.7
2017-Nov-09 11:29N 50°49' W 127°07'3 6.0
2017-Nov-09 11:00N 50°50' W 127°10'3 5.9
2017-Nov-09 10:30N 50°52' W 127°15'3 5.4
2017-Nov-09 09:59N 50°53' W 127°19'2 5.1
2017-Nov-09 09:30N 50°54' W 127°22'3 5.4
2017-Nov-09 09:00N 50°55' W 127°26'3 6.0
2017-Nov-09 08:30N 50°57' W 127°29'3 6.1
2017-Nov-09 08:00N 50°59' W 127°33'3 5.2
2017-Nov-09 07:30N 51°01' W 127°36'3 5.1
2017-Nov-09 07:00N 51°03' W 127°39'2 4.9
2017-Nov-09 06:30N 51°04' W 127°42'2 4.9
2017-Nov-09 06:00N 51°06' W 127°45'3 5.0
2017-Nov-09 05:29N 51°07' W 127°48'2 4.5
2017-Nov-09 05:00N 51°09' W 127°51'2 4.4
2017-Nov-09 04:29N 51°11' W 127°51'3 6.2
2017-Nov-09 04:00N 51°14' W 127°50'7 6.6
2017-Nov-09 02:57N 51°17' W 127°40'3 7.2
2017-Nov-09 02:30N 51°19' W 127°36'4 7.2
2017-Nov-09 02:01N 51°19' W 127°30'4 7.4
2017-Nov-09 01:30N 51°18' W 127°24'2 4.7
2017-Nov-09 01:00N 51°20' W 127°21'1 2.3
2017-Nov-09 00:30N 51°20' W 127°20'0 0.1
2017-Nov-08 23:57N 51°20' W 127°20'0 0.0
2017-Nov-08 23:04N 51°20' W 127°20'0 0.0
2017-Nov-08 22:57N 51°20' W 127°20'0 0.0
2017-Nov-08 22:30N 51°20' W 127°20'1 1.3
2017-Nov-08 22:01N 51°20' W 127°20'1 1.1
2017-Nov-08 21:31N 51°20' W 127°21'1 2.2
2017-Nov-08 21:00N 51°20' W 127°20'0 0.0
2017-Nov-08 20:30N 51°20' W 127°20'0 0.0
2017-Nov-08 17:08N 51°20' W 127°20'0 0.0
2017-Nov-08 16:57N 51°20' W 127°20'0 0.0
2017-Nov-08 16:21N 51°20' W 127°20'0 0.0
2017-Nov-08 15:07N 51°20' W 127°20'0 0.0
2017-Nov-08 10:39N 51°20' W 127°20'0 0.0
2017-Nov-08 05:27N 51°20' W 127°20'0 0.0
2017-Nov-08 05:00N 51°20' W 127°20'0 0.0
2017-Nov-07 19:08N 51°20' W 127°20'1 8.9
2017-Nov-07 19:00N 51°19' W 127°21'1 1.1
2017-Nov-07 18:30N 51°20' W 127°21'1 1.7
2017-Nov-07 17:53N 51°20' W 127°20'0 0.0
2017-Nov-07 08:05N 51°20' W 127°20'0 0.0
2017-Nov-06 23:31N 51°20' W 127°20'0 0.0
2017-Nov-06 23:30N 51°20' W 127°20'0 0.1
2017-Nov-06 21:30N 51°20' W 127°20'1 1.4
2017-Nov-06 21:00N 51°20' W 127°21'1 1.3
2017-Nov-06 20:20N 51°20' W 127°20'0 0.0
2017-Nov-06 01:11N 51°20' W 127°20'0 0.0
2017-Nov-05 23:42N 51°20' W 127°20'  

Dump ship's entire track history